createdAt,value
2023-04-18T00:01:25.057Z,81.26
2023-04-18T00:03:53.342Z,81.67
2023-04-18T00:06:22.291Z,81.27
2023-04-18T00:08:50.029Z,81.40
2023-04-18T00:11:17.679Z,81.41
2023-04-18T00:13:47.586Z,81.30
2023-04-18T00:16:15.600Z,81.21
2023-04-18T00:18:43.377Z,81.49
2023-04-18T00:21:11.151Z,81.21
2023-04-18T00:23:39.865Z,81.56
2023-04-18T00:26:07.461Z,81.40
2023-04-18T00:28:35.131Z,81.59
2023-04-18T00:31:02.890Z,81.36
2023-04-18T00:33:30.653Z,81.94
2023-04-18T00:35:58.257Z,81.51
2023-04-18T00:38:25.850Z,81.60
2023-04-18T00:40:53.444Z,81.56
2023-04-18T00:43:23.426Z,81.73
2023-04-18T00:45:51.047Z,82.01
2023-04-18T00:48:18.675Z,81.94
2023-04-18T00:50:46.332Z,82.03
2023-04-18T00:53:13.915Z,81.73
2023-04-18T00:55:41.592Z,81.73
2023-04-18T00:58:09.242Z,81.95
2023-04-18T01:00:36.896Z,81.98
2023-04-18T01:03:04.648Z,82.04
2023-04-18T01:05:32.428Z,81.91
2023-04-18T01:08:01.335Z,81.68
2023-04-18T01:10:29.249Z,81.79
2023-04-18T01:13:23.189Z,81.91
2023-04-18T01:15:54.075Z,81.96
2023-04-18T01:18:22.578Z,81.94
2023-04-18T01:20:51.107Z,82.17
2023-04-18T01:23:19.219Z,82.13
2023-04-18T01:25:47.284Z,82.08
2023-04-18T01:28:15.069Z,82.39
2023-04-18T01:30:42.706Z,82.11
2023-04-18T01:33:10.320Z,82.41
2023-04-18T01:35:38.108Z,82.55
2023-04-18T01:38:05.776Z,82.45
2023-04-18T01:40:33.404Z,82.23
2023-04-18T01:43:01.297Z,82.38
2023-04-18T01:45:28.893Z,82.32
2023-04-18T01:47:56.634Z,82.59
2023-04-18T01:50:24.442Z,82.13
2023-04-18T01:52:52.030Z,82.13
2023-04-18T01:55:19.698Z,82.28
2023-04-18T01:57:47.352Z,82.46
2023-04-18T02:00:15.854Z,82.51
2023-04-18T02:02:43.625Z,82.09
2023-04-18T02:05:11.394Z,82.13
2023-04-18T02:07:39.755Z,82.22
2023-04-18T02:10:07.913Z,82.22
2023-04-18T02:12:35.529Z,82.12
2023-04-18T02:15:03.564Z,82.16
2023-04-18T02:17:31.342Z,81.93
2023-04-18T02:19:59.007Z,81.71
2023-04-18T02:22:26.583Z,81.96
2023-04-18T02:24:54.176Z,81.87
2023-04-18T02:27:21.812Z,81.99
2023-04-18T02:29:49.420Z,82.09
2023-04-18T02:32:17.070Z,82.03
2023-04-18T02:34:44.719Z,82.18
2023-04-18T02:37:12.323Z,82.23
2023-04-18T02:39:39.890Z,82.60
2023-04-18T02:42:07.493Z,82.16
2023-04-18T02:44:35.129Z,82.67
2023-04-18T02:47:02.742Z,82.50
2023-04-18T02:49:30.385Z,82.73
2023-04-18T02:51:58.051Z,82.22
2023-04-18T02:54:25.779Z,82.39
2023-04-18T02:56:57.006Z,82.43
2023-04-18T02:59:24.693Z,82.71
2023-04-18T03:01:52.416Z,82.63
2023-04-18T03:04:20.240Z,82.56
2023-04-18T03:06:50.041Z,82.78
2023-04-18T03:09:17.896Z,82.93
2023-04-18T03:11:45.533Z,82.77
2023-04-18T03:14:13.241Z,82.52
2023-04-18T03:16:41.082Z,82.70
2023-04-18T03:19:09.246Z,82.57
2023-04-18T03:21:36.850Z,82.86
2023-04-18T03:24:04.953Z,82.90
2023-04-18T03:26:32.507Z,82.56
2023-04-18T03:29:00.106Z,82.57
2023-04-18T03:31:27.772Z,82.59
2023-04-18T03:33:55.404Z,82.89
2023-04-18T03:36:25.447Z,82.72
2023-04-18T03:38:54.698Z,82.61
2023-04-18T03:41:22.300Z,82.83
2023-04-18T03:43:49.909Z,82.64
2023-04-18T03:46:17.558Z,82.66
2023-04-18T03:48:45.285Z,82.46
2023-04-18T03:51:14.202Z,82.67
2023-04-18T03:53:41.955Z,82.66
2023-04-18T03:56:09.589Z,82.99
2023-04-18T03:58:37.194Z,82.92
2023-04-18T04:01:06.594Z,83.07
2023-04-18T04:03:34.302Z,82.96
2023-04-18T04:06:01.995Z,83.02
2023-04-18T04:08:29.642Z,83.14
2023-04-18T04:10:57.257Z,83.20
2023-04-18T04:13:24.898Z,82.93
2023-04-18T04:15:52.549Z,83.28
2023-04-18T04:18:20.401Z,83.06
2023-04-18T04:20:48.025Z,83.18
2023-04-18T04:23:15.620Z,83.05
2023-04-18T04:25:45.538Z,83.19
2023-04-18T04:28:14.044Z,83.09
2023-04-18T04:30:41.751Z,82.91
2023-04-18T04:33:09.345Z,83.25
2023-04-18T04:35:37.057Z,82.83
2023-04-18T04:38:04.661Z,83.14
2023-04-18T04:40:32.365Z,82.96
2023-04-18T04:43:00.489Z,83.14
2023-04-18T04:45:28.145Z,83.19
2023-04-18T04:47:55.936Z,82.96
2023-04-18T04:50:23.556Z,82.89
2023-04-18T04:52:51.299Z,83.01
2023-04-18T04:55:19.091Z,83.11
2023-04-18T04:57:47.824Z,83.08
2023-04-18T05:00:20.766Z,82.53
2023-04-18T05:02:49.082Z,83.01
2023-04-18T05:05:16.784Z,82.84
2023-04-18T05:07:44.364Z,83.01
2023-04-18T05:10:11.981Z,83.02
2023-04-18T05:12:39.589Z,82.84
2023-04-18T05:15:08.014Z,82.87
2023-04-18T05:17:35.661Z,82.85
2023-04-18T05:20:04.190Z,82.66
2023-04-18T05:22:32.424Z,82.74
2023-04-18T05:25:00.127Z,82.86
2023-04-18T05:27:27.821Z,82.44
2023-04-18T05:29:55.865Z,82.50
2023-04-18T05:32:23.565Z,82.32
2023-04-18T05:34:51.243Z,82.20
2023-04-18T05:37:18.873Z,82.07
2023-04-18T05:39:46.652Z,82.02
2023-04-18T05:42:14.424Z,82.18
2023-04-18T05:44:42.108Z,81.77
2023-04-18T05:47:09.991Z,81.65
2023-04-18T05:49:37.693Z,81.23
2023-04-18T05:52:05.516Z,81.21
2023-04-18T05:54:33.224Z,81.52
2023-04-18T05:57:03.194Z,80.86
2023-04-18T05:59:32.049Z,80.81
2023-04-18T06:01:59.819Z,80.95
2023-04-18T06:04:27.797Z,80.59
2023-04-18T06:06:55.588Z,80.50
2023-04-18T06:09:23.192Z,80.09
2023-04-18T06:11:50.905Z,80.46
2023-04-18T06:14:18.612Z,80.27
2023-04-18T06:16:46.269Z,80.22
2023-04-18T06:19:13.854Z,79.98
2023-04-18T06:21:42.867Z,79.91
2023-04-18T06:24:10.549Z,80.03
2023-04-18T06:26:38.160Z,80.04
2023-04-18T06:29:05.946Z,79.34
2023-04-18T06:31:33.576Z,78.89
2023-04-18T06:34:01.168Z,78.51
2023-04-18T06:36:28.817Z,78.10
2023-04-18T06:38:56.430Z,77.88
2023-04-18T06:41:24.081Z,77.88
2023-04-18T06:44:02.768Z,77.40
2023-04-18T06:46:32.758Z,76.59
2023-04-18T06:49:00.481Z,76.17
2023-04-18T06:51:28.199Z,76.05
2023-04-18T06:53:55.899Z,75.57
2023-04-18T06:56:23.652Z,75.50
2023-04-18T06:58:52.863Z,75.31
2023-04-18T07:01:20.838Z,75.09
2023-04-18T07:03:48.758Z,74.70
2023-04-18T07:06:16.608Z,74.02
2023-04-18T07:08:44.205Z,73.62
2023-04-18T07:11:13.340Z,74.07
2023-04-18T07:13:40.994Z,73.67
2023-04-18T07:16:09.426Z,73.01
2023-04-18T07:18:38.573Z,72.62
2023-04-18T07:21:09.421Z,72.49
2023-04-18T07:23:37.274Z,72.51
2023-04-18T07:26:05.895Z,72.44
2023-04-18T07:28:33.724Z,72.51
2023-04-18T07:31:03.188Z,72.32
2023-04-18T07:33:33.963Z,71.66
2023-04-18T07:36:02.173Z,71.74
2023-04-18T07:38:29.796Z,71.58
2023-04-18T07:40:58.511Z,71.37
2023-04-18T07:43:26.340Z,71.22
2023-04-18T07:45:54.058Z,70.67
2023-04-18T07:48:22.738Z,70.70
2023-04-18T07:50:50.826Z,70.33
2023-04-18T07:53:18.491Z,70.11
2023-04-18T07:55:46.719Z,69.83
2023-04-18T07:58:14.666Z,69.37
2023-04-18T08:00:43.848Z,69.18
2023-04-18T08:03:12.872Z,69.09
2023-04-18T08:05:41.962Z,69.21
2023-04-18T08:08:10.760Z,68.62
2023-04-18T08:10:38.411Z,68.81
2023-04-18T08:13:06.312Z,68.38
2023-04-18T08:15:34.061Z,67.35
2023-04-18T08:18:01.848Z,66.95
2023-04-18T08:20:29.654Z,66.63
2023-04-18T08:23:06.838Z,66.69
2023-04-18T08:25:36.692Z,66.91
2023-04-18T08:28:04.720Z,66.26
2023-04-18T08:30:32.506Z,65.98
2023-04-18T08:33:00.923Z,65.82
2023-04-18T08:35:30.519Z,65.91
2023-04-18T08:37:58.117Z,66.32
2023-04-18T08:40:25.787Z,66.58
2023-04-18T08:42:54.108Z,66.16
2023-04-18T08:45:21.830Z,65.78
2023-04-18T08:47:49.509Z,64.89
2023-04-18T08:50:18.468Z,64.68
2023-04-18T08:52:48.847Z,65.27
2023-04-18T08:55:16.537Z,64.02
2023-04-18T08:57:44.211Z,63.92
2023-04-18T09:00:12.613Z,64.09
2023-04-18T09:02:45.015Z,64.14
2023-04-18T09:05:19.102Z,63.76
2023-04-18T09:07:47.771Z,63.53
2023-04-18T09:10:33.353Z,63.25
2023-04-18T09:13:03.530Z,62.78
2023-04-18T09:15:31.725Z,62.78
2023-04-18T09:18:02.302Z,61.91
2023-04-18T09:20:41.640Z,62.26
2023-04-18T09:23:11.328Z,61.72
2023-04-18T09:25:45.488Z,60.24
2023-04-18T09:28:30.239Z,61.48
2023-04-18T09:31:09.663Z,61.82
2023-04-18T09:33:37.763Z,61.82
2023-04-18T09:36:25.148Z,61.22
2023-04-18T09:38:56.200Z,60.17
2023-04-18T09:41:24.266Z,59.57
2023-04-18T09:44:09.716Z,59.52
2023-04-18T09:46:39.375Z,60.04
2023-04-18T09:49:09.632Z,58.36
2023-04-18T09:51:38.516Z,57.07
2023-04-18T09:54:06.179Z,56.80
2023-04-18T09:56:33.829Z,57.43
2023-04-18T09:59:08.843Z,57.11
2023-04-18T10:01:36.652Z,55.90
2023-04-18T10:04:06.747Z,55.19
2023-04-18T10:06:35.190Z,55.72
2023-04-18T10:09:03.399Z,55.39
2023-04-18T10:11:31.748Z,54.64
2023-04-18T10:14:02.708Z,52.74
2023-04-18T10:16:30.401Z,53.59
2023-04-18T10:18:58.442Z,51.92
2023-04-18T10:21:27.669Z,50.89
2023-04-18T10:23:55.503Z,50.97
2023-04-18T10:26:24.083Z,51.48
2023-04-18T10:28:58.320Z,49.83
2023-04-18T10:31:27.435Z,48.49
2023-04-18T10:36:28.652Z,47.31
2023-04-18T10:39:00.800Z,48.24
2023-04-18T10:41:32.110Z,48.08
2023-04-18T10:44:09.702Z,47.68
2023-04-18T10:46:38.875Z,46.53
2023-04-18T10:49:18.752Z,46.46
2023-04-18T10:51:47.200Z,45.28
2023-04-18T10:54:24.170Z,46.19
2023-04-18T10:56:56.648Z,45.34
2023-04-18T10:59:25.455Z,46.11
2023-04-18T11:01:58.209Z,45.03
2023-04-18T11:04:25.898Z,44.42
2023-04-18T11:06:58.382Z,43.38
2023-04-18T11:09:26.062Z,42.24
2023-04-18T11:12:07.532Z,41.07
2023-04-18T11:14:45.763Z,41.34
2023-04-18T11:17:21.949Z,41.39
2023-04-18T11:19:50.362Z,41.22
2023-04-18T11:22:18.371Z,40.33
2023-04-18T11:24:46.024Z,39.08
2023-04-18T11:27:13.988Z,37.64
2023-04-18T11:29:41.790Z,37.65
2023-04-18T11:32:09.596Z,37.68
2023-04-18T11:34:37.393Z,37.94
2023-04-18T11:37:08.513Z,36.89
2023-04-18T11:39:42.920Z,37.40
2023-04-18T11:42:10.614Z,38.23
2023-04-18T11:44:40.076Z,37.94
2023-04-18T11:47:29.086Z,37.88
2023-04-18T11:50:07.018Z,37.75
2023-04-18T11:52:35.574Z,37.26
2023-04-18T11:55:13.720Z,37.35
2023-04-18T11:57:42.014Z,36.87
2023-04-18T12:00:12.245Z,34.65
2023-04-18T12:02:44.172Z,33.11
2023-04-18T12:05:15.063Z,32.98
2023-04-18T12:07:44.967Z,34.44
2023-04-18T12:10:30.989Z,34.30
2023-04-18T12:12:59.064Z,34.66
2023-04-18T12:15:28.355Z,33.83
2023-04-18T12:18:00.693Z,32.82
2023-04-18T12:20:46.397Z,31.86
2023-04-18T12:23:33.843Z,32.11
2023-04-18T12:26:05.055Z,32.03
2023-04-18T12:28:33.499Z,32.05
2023-04-18T12:31:01.881Z,32.13
2023-04-18T12:33:30.532Z,31.32
2023-04-18T12:35:58.285Z,30.92
2023-04-18T12:38:25.958Z,30.77
2023-04-18T12:40:53.576Z,30.70
2023-04-18T12:43:21.209Z,30.63
2023-04-18T12:45:49.681Z,29.80
2023-04-18T12:48:17.405Z,30.24
2023-04-18T12:50:45.004Z,28.82
2023-04-18T12:53:12.845Z,28.34
2023-04-18T12:55:40.789Z,29.22
2023-04-18T12:58:08.540Z,28.63
2023-04-18T13:00:36.240Z,28.48
2023-04-18T13:03:04.769Z,29.14
2023-04-18T13:05:34.174Z,29.67
2023-04-18T13:10:32.697Z,30.45
2023-04-18T13:13:00.516Z,31.07
2023-04-18T13:15:28.439Z,29.72
2023-04-18T13:17:57.068Z,30.27
2023-04-18T13:20:24.814Z,29.43
2023-04-18T13:22:52.492Z,28.55
2023-04-18T13:25:20.344Z,27.50
2023-04-18T13:27:50.156Z,27.66
2023-04-18T13:30:17.927Z,27.77
2023-04-18T13:32:46.271Z,28.65
2023-04-18T13:35:14.023Z,28.14
2023-04-18T13:37:41.897Z,29.10
2023-04-18T13:40:10.129Z,28.98
2023-04-18T13:42:38.416Z,29.45
2023-04-18T13:45:07.444Z,29.99
2023-04-18T13:47:35.866Z,30.93
2023-04-18T13:50:04.089Z,31.58
2023-04-18T13:52:31.759Z,32.00
2023-04-18T13:54:59.396Z,32.89
2023-04-18T13:57:28.445Z,33.82
2023-04-18T13:59:56.084Z,33.71
2023-04-18T14:02:23.908Z,34.11
2023-04-18T14:04:52.721Z,34.46
2023-04-18T14:07:20.406Z,34.80
2023-04-18T14:09:48.242Z,34.87
2023-04-18T14:12:16.061Z,34.80
2023-04-18T14:14:43.686Z,34.62
2023-04-18T14:17:11.419Z,34.95
2023-04-18T14:19:39.177Z,35.15
2023-04-18T14:22:07.831Z,35.03
2023-04-18T14:24:36.492Z,35.26
2023-04-18T14:27:04.189Z,35.92
2023-04-18T14:29:31.784Z,36.32
2023-04-18T14:31:59.411Z,35.78
2023-04-18T14:34:27.008Z,36.63
2023-04-18T14:36:54.693Z,36.62
2023-04-18T14:39:22.393Z,36.44
2023-04-18T14:41:50.052Z,36.48
2023-04-18T14:44:17.630Z,37.06
2023-04-18T14:46:45.318Z,37.00
2023-04-18T14:49:13.119Z,36.80
2023-04-18T14:51:41.127Z,37.32
2023-04-18T14:54:08.713Z,37.71
2023-04-18T14:56:36.347Z,36.69
2023-04-18T14:59:03.987Z,36.93
2023-04-18T15:01:31.669Z,36.80
2023-04-18T15:03:59.772Z,36.87
2023-04-18T15:06:28.433Z,37.37
2023-04-18T15:08:56.712Z,37.78
2023-04-18T15:11:24.453Z,38.33
2023-04-18T15:13:52.080Z,38.80
2023-04-18T15:16:19.780Z,39.49
2023-04-18T15:18:47.494Z,40.42
2023-04-18T15:21:15.104Z,41.05
2023-04-18T15:23:42.851Z,41.61
2023-04-18T15:26:10.743Z,42.60
2023-04-18T15:28:38.349Z,42.93
2023-04-18T15:31:06.096Z,43.82
2023-04-18T15:33:33.718Z,43.69
2023-04-18T15:36:01.308Z,44.46
2023-04-18T15:38:30.492Z,44.75
2023-04-18T15:40:59.972Z,45.41
2023-04-18T15:43:27.582Z,45.67
2023-04-18T15:45:55.224Z,45.64
2023-04-18T15:48:22.854Z,46.14
2023-04-18T15:50:51.198Z,46.37
2023-04-18T15:53:18.917Z,46.38
2023-04-18T15:55:46.919Z,46.19
2023-04-18T15:58:14.651Z,46.53
2023-04-18T16:00:42.294Z,46.57
2023-04-18T16:03:10.506Z,46.93
2023-04-18T16:05:38.343Z,46.95
2023-04-18T16:08:06.332Z,47.09
2023-04-18T16:10:33.937Z,47.57
2023-04-18T16:13:02.442Z,48.04
2023-04-18T16:15:34.864Z,48.96
2023-04-18T16:18:02.578Z,49.49
2023-04-18T16:20:30.276Z,50.14
2023-04-18T16:22:57.870Z,50.34
2023-04-18T16:25:25.755Z,50.67
2023-04-18T16:27:53.759Z,51.05
2023-04-18T16:30:21.492Z,51.13
2023-04-18T16:32:49.154Z,51.29
2023-04-18T16:35:16.840Z,51.87
2023-04-18T16:37:44.477Z,52.11
2023-04-18T16:40:12.294Z,52.35
2023-04-18T16:42:41.200Z,52.96
2023-04-18T16:45:08.994Z,53.37
2023-04-18T16:47:36.712Z,53.42
2023-04-18T16:50:05.210Z,53.99
2023-04-18T16:52:32.917Z,54.41
2023-04-18T16:55:00.588Z,55.02
2023-04-18T16:57:28.221Z,55.08
2023-04-18T16:59:55.900Z,55.22
2023-04-18T17:02:24.023Z,55.75
2023-04-18T17:04:51.916Z,55.80
2023-04-18T17:07:19.582Z,56.02
2023-04-18T17:09:47.240Z,56.31
2023-04-18T17:12:15.045Z,56.59
2023-04-18T17:14:42.645Z,56.66
2023-04-18T17:17:10.579Z,57.11
2023-04-18T17:19:39.187Z,57.10
2023-04-18T17:22:07.344Z,57.20
2023-04-18T17:24:35.196Z,57.50
2023-04-18T17:27:03.046Z,57.57
2023-04-18T17:29:30.957Z,57.37
2023-04-18T17:31:58.989Z,57.59
2023-04-18T17:34:26.984Z,57.25
2023-04-18T17:36:54.925Z,57.32
2023-04-18T17:39:22.875Z,57.43
2023-04-18T17:41:50.753Z,57.51
2023-04-18T17:44:18.386Z,57.14
2023-04-18T17:46:47.377Z,56.61
2023-04-18T17:49:16.840Z,56.48
2023-04-18T17:51:44.704Z,56.29
2023-04-18T17:54:13.488Z,56.20
2023-04-18T17:56:41.376Z,56.18
2023-04-18T17:59:09.862Z,56.49
2023-04-18T18:01:37.901Z,56.66
2023-04-18T18:04:05.889Z,57.09
2023-04-18T18:06:34.679Z,57.42
2023-04-18T18:09:02.940Z,57.75
2023-04-18T18:11:30.586Z,58.10
2023-04-18T18:13:58.264Z,59.02
2023-04-18T18:16:26.294Z,59.71
2023-04-18T18:18:54.074Z,60.17
2023-04-18T18:21:21.869Z,60.51
2023-04-18T18:23:49.781Z,60.75
2023-04-18T18:26:17.427Z,61.05
2023-04-18T18:28:45.152Z,61.40
2023-04-18T18:31:13.103Z,61.47
2023-04-18T18:33:41.227Z,61.68
2023-04-18T18:36:08.839Z,61.79
2023-04-18T18:38:36.860Z,61.61
2023-04-18T18:41:05.712Z,61.77
2023-04-18T18:43:33.629Z,61.86
2023-04-18T18:46:01.272Z,61.63
2023-04-18T18:48:29.260Z,61.79
2023-04-18T18:50:58.544Z,61.78
2023-04-18T18:53:26.183Z,61.89
2023-04-18T18:55:53.812Z,61.94
2023-04-18T18:58:21.747Z,62.07
2023-04-18T19:00:51.220Z,62.22
2023-04-18T19:03:21.249Z,62.31
2023-04-18T19:05:49.368Z,62.51
2023-04-18T19:08:17.283Z,62.79
2023-04-18T19:10:44.922Z,63.06
2023-04-18T19:13:12.531Z,63.38
2023-04-18T19:15:40.212Z,63.45
2023-04-18T19:18:07.933Z,63.45
2023-04-18T19:20:35.671Z,63.55
2023-04-18T19:23:03.299Z,63.42
2023-04-18T19:25:31.288Z,63.37
2023-04-18T19:27:58.937Z,63.62
2023-04-18T19:30:26.552Z,63.56
2023-04-18T19:32:54.208Z,63.61
2023-04-18T19:35:22.094Z,63.76
2023-04-18T19:37:49.918Z,63.64
2023-04-18T19:40:17.799Z,63.78
2023-04-18T19:42:46.212Z,63.70
2023-04-18T19:45:15.210Z,63.73
2023-04-18T19:47:44.431Z,63.90
2023-04-18T19:50:12.197Z,64.13
2023-04-18T19:52:39.875Z,64.21
2023-04-18T19:55:07.965Z,64.23
2023-04-18T19:57:39.635Z,64.34
2023-04-18T20:00:09.358Z,64.51
2023-04-18T20:02:37.329Z,64.36
2023-04-18T20:05:06.347Z,64.42
2023-04-18T20:07:34.811Z,64.32
2023-04-18T20:10:02.471Z,64.43
2023-04-18T20:12:30.161Z,64.52
2023-04-18T20:14:58.981Z,64.49
2023-04-18T20:17:27.734Z,64.75
2023-04-18T20:19:57.333Z,64.77
2023-04-18T20:22:26.726Z,64.92
2023-04-18T20:24:57.272Z,64.88
2023-04-18T20:27:25.006Z,65.11
2023-04-18T20:29:52.657Z,64.88
2023-04-18T20:32:20.675Z,65.14
2023-04-18T20:34:48.531Z,65.27
2023-04-18T20:37:19.830Z,65.31
2023-04-18T20:39:47.713Z,65.46
2023-04-18T20:42:15.857Z,65.37
2023-04-18T20:44:44.793Z,65.55
2023-04-18T20:47:15.148Z,65.50
2023-04-18T20:49:43.279Z,65.46
2023-04-18T20:52:10.925Z,65.58
2023-04-18T20:54:38.575Z,65.57
2023-04-18T20:57:06.301Z,65.63
2023-04-18T20:59:33.903Z,65.91
2023-04-18T21:02:01.714Z,65.92
2023-04-18T21:04:29.610Z,65.98
2023-04-18T21:06:57.932Z,66.11
2023-04-18T21:09:25.707Z,66.15
2023-04-18T21:11:53.323Z,66.21
2023-04-18T21:14:20.971Z,66.47
2023-04-18T21:16:48.560Z,66.58
2023-04-18T21:19:16.415Z,66.60
2023-04-18T21:21:44.138Z,66.51
2023-04-18T21:24:11.852Z,66.42
2023-04-18T21:26:39.494Z,66.47
2023-04-18T21:29:07.590Z,66.75
2023-04-18T21:31:35.511Z,66.71
2023-04-18T21:34:04.627Z,66.95
2023-04-18T21:36:32.682Z,67.04
2023-04-18T21:39:00.979Z,67.33
2023-04-18T21:41:28.721Z,67.39
2023-04-18T21:43:56.398Z,67.85
2023-04-18T21:46:24.226Z,68.12
2023-04-18T21:48:52.041Z,68.27
2023-04-18T21:51:19.661Z,68.14
2023-04-18T21:53:47.338Z,68.19
2023-04-18T21:56:14.987Z,68.57
2023-04-18T21:58:42.625Z,68.75
2023-04-18T22:01:10.339Z,68.86
2023-04-18T22:03:38.178Z,68.94
2023-04-18T22:06:06.227Z,69.11
2023-04-18T22:08:33.889Z,69.14
2023-04-18T22:11:01.670Z,69.53
2023-04-18T22:13:35.683Z,69.64
2023-04-18T22:16:03.759Z,69.66
2023-04-18T22:18:34.576Z,69.72
2023-04-18T22:21:03.430Z,69.88
2023-04-18T22:23:31.295Z,70.14
2023-04-18T22:25:58.947Z,70.19
2023-04-18T22:28:28.179Z,70.43
2023-04-18T22:30:56.066Z,70.71
2023-04-18T22:33:24.381Z,70.44
2023-04-18T22:35:52.336Z,70.91
2023-04-18T22:38:19.948Z,71.10
2023-04-18T22:40:47.744Z,71.10
2023-04-18T22:43:15.350Z,71.22
2023-04-18T22:45:42.981Z,71.37
2023-04-18T22:48:13.282Z,71.90
2023-04-18T22:50:42.930Z,71.92
2023-04-18T22:53:11.150Z,72.22
2023-04-18T22:55:40.482Z,72.42
2023-04-18T22:58:08.796Z,72.81
2023-04-18T23:00:37.009Z,72.43
2023-04-18T23:03:04.864Z,72.70
2023-04-18T23:05:33.373Z,72.76
2023-04-18T23:08:01.050Z,73.03
2023-04-18T23:10:28.730Z,72.95
2023-04-18T23:12:56.727Z,73.28
2023-04-18T23:15:25.352Z,73.21
2023-04-18T23:17:53.391Z,73.20
2023-04-18T23:20:21.424Z,73.40
2023-04-18T23:22:51.572Z,73.66
2023-04-18T23:25:20.064Z,73.39
2023-04-18T23:27:48.023Z,73.31
2023-04-18T23:30:16.071Z,73.70
2023-04-18T23:32:44.048Z,73.45
2023-04-18T23:35:11.907Z,73.85
2023-04-18T23:37:39.577Z,73.90
2023-04-18T23:40:08.206Z,74.02
2023-04-18T23:42:35.984Z,73.83
2023-04-18T23:45:04.102Z,73.79
2023-04-18T23:47:31.734Z,73.42
2023-04-18T23:49:59.656Z,73.33
2023-04-18T23:52:27.280Z,73.79
2023-04-18T23:54:55.554Z,73.51
2023-04-18T23:57:23.180Z,73.74
2023-04-18T23:59:50.793Z,73.39
